RYR45YF LOWW-EDNY
Flight info
| Callsign | RYR45YF |
|---|---|
| Flight time | N/A |
| Altitude | 34000 |
| Route | SOVIL1C/29 SOVIL SITNI BAGSI MATIG TRAUN L856 KPT KPT1F |
| Aircraft | A320/M-SDE3FGHIRWY/LB1 |
Departure
| Time | 2026-04-26 17:14 |
|---|---|
| Airport | Vienna International Airport (LOWW) |
Arrival
| Time | N/A |
|---|---|
| Airport | Bodensee Airport Friedrichshafen (EDNY) |
| Time | Latitude | Longitude | Altitude | Speed | Heading |
|---|---|---|---|---|---|
| 2026-04-26 16:54 | 48.11688 | 16.56845 | 600 ft | 0 kts | 29° |
| 2026-04-26 17:05 | 48.11672 | 16.56832 | 600 ft | 3 kts | 29° |
| 2026-04-26 17:05 | 48.11655 | 16.56818 | 600 ft | 3 kts | 29° |
| 2026-04-26 17:06 | 48.11639 | 16.56805 | 601 ft | 3 kts | 29° |
| 2026-04-26 17:06 | 48.11623 | 16.56791 | 601 ft | 3 kts | 29° |
| 2026-04-26 17:06 | 48.11618 | 16.56787 | 601 ft | 0 kts | 29° |
| 2026-04-26 17:09 | 48.11618 | 16.56838 | 601 ft | 8 kts | 121° |
| 2026-04-26 17:09 | 48.11561 | 16.56915 | 603 ft | 14 kts | 161° |
| 2026-04-26 17:10 | 48.11508 | 16.56903 | 603 ft | 0 kts | 205° |
| 2026-04-26 17:10 | 48.11501 | 16.56898 | 603 ft | 0 kts | 205° |
| 2026-04-26 17:11 | 48.11461 | 16.56863 | 603 ft | 11 kts | 209° |
| 2026-04-26 17:11 | 48.11374 | 16.56817 | 603 ft | 10 kts | 166° |
| 2026-04-26 17:12 | 48.11300 | 16.56999 | 607 ft | 14 kts | 114° |
| 2026-04-26 17:12 | 48.11244 | 16.57166 | 608 ft | 21 kts | 116° |
| 2026-04-26 17:13 | 48.11131 | 16.57504 | 612 ft | 10 kts | 127° |
| 2026-04-26 17:13 | 48.11077 | 16.57523 | 604 ft | 9 kts | 193° |
| 2026-04-26 17:13 | 48.10963 | 16.57419 | 610 ft | 12 kts | 250° |
| 2026-04-26 17:14 | 48.11014 | 16.57226 | 613 ft | 42 kts | 296° |
| 2026-04-26 17:14 | 48.11664 | 16.55240 | 683 ft | 160 kts | 297° |
| 2026-04-26 17:14 | 48.12158 | 16.53709 | 1614 ft | 165 kts | 296° |
| 2026-04-26 17:15 | 48.12589 | 16.50307 | 2928 ft | 200 kts | 248° |
| 2026-04-26 17:15 | 48.11695 | 16.48456 | 3125 ft | 236 kts | 231° |
| 2026-04-26 17:15 | 48.10574 | 16.46608 | 3877 ft | 241 kts | 231° |
| 2026-04-26 17:16 | 48.09463 | 16.44705 | 4424 ft | 242 kts | 233° |
| 2026-04-26 17:16 | 48.08381 | 16.42770 | 4780 ft | 245 kts | 234° |
| 2026-04-26 17:16 | 48.07279 | 16.40692 | 5099 ft | 264 kts | 236° |
| 2026-04-26 17:16 | 48.06155 | 16.38490 | 5991 ft | 266 kts | 236° |
| 2026-04-26 17:17 | 48.05052 | 16.36265 | 7019 ft | 267 kts | 239° |
| 2026-04-26 17:17 | 48.04344 | 16.33779 | 7939 ft | 265 kts | 259° |
| 2026-04-26 17:17 | 48.04009 | 16.31060 | 8879 ft | 266 kts | 264° |
| 2026-04-26 17:17 | 48.03808 | 16.28290 | 9776 ft | 269 kts | 267° |
| 2026-04-26 17:18 | 48.03685 | 16.25466 | 10454 ft | 280 kts | 269° |
| 2026-04-26 17:18 | 48.03622 | 16.22450 | 10810 ft | 301 kts | 270° |
| 2026-04-26 17:18 | 48.03602 | 16.19228 | 11195 ft | 319 kts | 271° |
| 2026-04-26 17:18 | 48.03612 | 16.15826 | 11610 ft | 335 kts | 272° |
| 2026-04-26 17:19 | 48.03686 | 16.08558 | 12544 ft | 361 kts | 272° |
| 2026-04-26 17:19 | 48.03736 | 16.04790 | 13335 ft | 364 kts | 272° |
| 2026-04-26 17:19 | 48.03791 | 16.00987 | 14058 ft | 368 kts | 272° |
| 2026-04-26 17:20 | 48.03847 | 15.97145 | 14720 ft | 371 kts | 272° |
| 2026-04-26 17:20 | 48.03865 | 15.95888 | 14932 ft | 372 kts | 272° |
| 2026-04-26 17:20 | 48.03959 | 15.89413 | 15990 ft | 378 kts | 272° |
| 2026-04-26 17:20 | 48.04017 | 15.85475 | 16616 ft | 381 kts | 272° |
| 2026-04-26 17:21 | 48.04075 | 15.81495 | 17227 ft | 385 kts | 272° |
| 2026-04-26 17:21 | 48.04131 | 15.77479 | 17839 ft | 388 kts | 272° |
| 2026-04-26 17:21 | 48.04188 | 15.73432 | 18441 ft | 391 kts | 272° |
| 2026-04-26 17:21 | 48.04244 | 15.69345 | 18953 ft | 394 kts | 272° |
| 2026-04-26 17:22 | 48.04300 | 15.65231 | 19482 ft | 397 kts | 272° |
| 2026-04-26 17:22 | 48.04356 | 15.61083 | 20012 ft | 400 kts | 272° |
| 2026-04-26 17:22 | 48.04409 | 15.56918 | 20521 ft | 402 kts | 272° |